Nearby METAR Reports

 

YBBN - Brisbane Intl Ar, Australia
Distance from station: SE 37km
Updated: 20/07/2019 14:30
Partly cloudy
Partly cloudy
 Wind from E
Wind: E 13 km/h
Temperature: 20°C
Dew Point: 9°C
Humidity: 49%
Barometer: 1022 hPa
Clouds: Partly cloudy
Visibility: 10 km
Cloud details: Partly cloudy 1433 m
2019/07/20 04:30 YBBN 200430Z 08007KT 9999 SCT047 20/09 Q1022 NOSIG
YAMB - Amberley, Australia
Distance from station: SSW 50km
Updated: 20/07/2019 14:30
Clear
Clear
 Wind from ENE
Wind: ENE 17 km/h
Temperature: 22°C
Dew Point: 8°C
Humidity: 41%
Barometer: 1021 hPa
Clouds: Clear
Visibility: 10 km
2019/07/20 04:30 YAMB 200430Z AUTO 07009KT 050V110 9999 // NCD 22/08 Q1021
 
YBOK - Oakey (army/Civ), Australia
Distance from station: WSW 112km
Updated: 20/07/2019 14:00
Clear
Clear
 Wind from ENE
Wind: ENE 20 km/h
Temperature: 21°C
Dew Point: 2°C
Humidity: 29%
Barometer: 1021 hPa
Clouds: Clear
Visibility: 10 km
2019/07/20 04:00 YBOK 200400Z AUTO 07011KT 010V080 9999 // NCD 21/02 Q1021
YKRY - Kingaroy Arpt, Australia
Distance from station: NW 121km
Updated: 20/07/2019 14:00
Clear
Clear
 Wind from ENE
Wind: ENE 13 km/h
Temperature: 21°C
Dew Point: 3°C
Humidity: 31%
Barometer: 1021 hPa
Clouds: Clear
Visibility: 10 km
2019/07/20 04:00 YKRY 200400Z AUTO 06007KT 030V090 9999 // NCD 21/03 Q1021
 
YBCG - Coolangatta Aws, Australia
Distance from station: SSE 127km
Updated: 20/07/2019 14:30
Clear
Clear
 Wind from ESE
Wind: ESE 17 km/h
Temperature: 20°C
Dew Point: 13°C
Humidity: 64%
Barometer: 1022 hPa
Clouds: Clear
Visibility: 10 km
2019/07/20 04:30 YBCG 200430Z AUTO 11009KT 9999 // NCD 20/13 Q1022 RF00.0/000.0
YLIS - Lismore Arpt, Australia
Distance from station: SSE 187km
Updated: 20/07/2019 14:00
Clear
Clear
 Wind from calm
Wind: Calm
Temperature: 21°C
Dew Point: 7°C
Humidity: 40%
Barometer: 1021 hPa
Clouds: Clear
Visibility: 10 km
2019/07/20 04:00 YLIS 200400Z AUTO 00000KT 9999 // NCD 21/07 Q1021
 
YCAS - Casino Airport, Australia
Distance from station: S 189km
Updated: 20/07/2019 14:00

 Wind from SE
Wind: SE 7 km/h
Temperature: 20°C
Dew Point: 7°C
Humidity: 43%
Barometer: 1022 hPa
2019/07/20 04:00 YCAS 200400Z AUTO 14004KT 080V230 //// // ////// 20/07 Q1022
YBNA - Ballina Byron G., Australia
Distance from station: SSE 196km
Updated: 20/07/2019 14:00
Clear
Clear
 Wind from SE
Wind: SE 7 km/h
Temperature: 20°C
Dew Point: 10°C
Humidity: 53%
Barometer: 1022 hPa
Clouds: Clear
Visibility: 10 km
2019/07/20 04:00 YBNA 200400Z AUTO 14004KT 080V160 9999 // NCD 20/10 Q1022
 
YBUD - Bundaberg, Australia
Distance from station: NNW 260km
Updated: 20/07/2019 14:00
Mostly cloudy
Mostly cloudy
 Wind from E
Wind: E 20 km/h
Temperature: 22°C
Dew Point: 9°C
Humidity: 44%
Barometer: 1021 hPa
Clouds: Mostly cloudy
Visibility: 10 km
Cloud details: Partly cloudy 1494 m
Mostly cloudy 1737 m
2019/07/20 04:00 YBUD 200400Z AUTO 09011KT 9999 // SCT049 BKN057 22/09 Q1021
YGFN - Grafton Arpt, Australia
Distance from station: S 287km
Updated: 20/07/2019 14:00
Clear
Clear
 Wind from N
Wind: N 11 km/h
Temperature: 21°C
Dew Point: 7°C
Humidity: 40%
Barometer: 1021 hPa
Clouds: Clear
Visibility: 10 km
2019/07/20 04:00 YGFN 200400Z AUTO 35006KT 320V020 9999 // NCD 21/07 Q1021